Time;durP1;ratioP1;P1;durP2;ratioP2;P2;SDS_P1;SDS_P2;PMS_P1;PMS_P2;Temp;Humidity;BMP_temperature;BMP_pressure;BME280_temperature;BME280_humidity;BME280_pressure;Samples;Min_cycle;Max_cycle;Signal;HPM_P1;HPM_P2
2022/02/22 00:00:46;;;;;;;18.75;2.67;;;5.10;99.90;;;;;;5079257;28;20324;-78
2022/02/22 00:03:13;;;;;;;15.10;2.63;;;5.10;99.90;;;;;;5062059;28;20063;-78
2022/02/22 00:05:41;;;;;;;9.25;2.28;;;5.10;99.90;;;;;;5079843;28;20044;-78
2022/02/22 00:08:08;;;;;;;13.93;2.10;;;5.10;99.90;;;;;;5079948;28;20017;-78
2022/02/22 00:10:36;;;;;;;19.73;2.53;;;5.10;99.90;;;;;;5061952;28;20169;-78
2022/02/22 00:13:03;;;;;;;22.10;2.65;;;5.00;99.90;;;;;;5079836;28;20021;-78
2022/02/22 00:15:31;;;;;;;22.20;3.67;;;4.90;99.90;;;;;;5061940;28;20344;-78
2022/02/22 00:17:58;;;;;;;10.38;2.35;;;4.90;99.90;;;;;;5078768;28;20412;-78
2022/02/22 00:20:26;;;;;;;12.10;2.00;;;4.80;99.90;;;;;;5078596;28;20031;-78
2022/02/22 00:22:53;;;;;;;21.45;2.88;;;4.70;99.90;;;;;;5078376;28;20052;-78
2022/02/22 00:25:21;;;;;;;15.15;2.60;;;4.70;99.90;;;;;;5078704;28;20123;-78
2022/02/22 00:27:48;;;;;;;10.48;3.03;;;4.70;99.90;;;;;;5078752;28;20096;-78
2022/02/22 00:30:17;;;;;;;24.65;3.38;;;4.60;99.90;;;;;;5078328;28;20351;-78
2022/02/22 00:32:45;;;;;;;11.73;2.47;;;4.60;99.90;;;;;;5078254;28;20019;-78
2022/02/22 00:35:13;;;;;;;12.38;2.10;;;4.60;99.90;;;;;;5078583;28;20313;-78
2022/02/22 00:37:41;;;;;;;16.75;2.30;;;4.50;99.90;;;;;;5079141;28;20063;-78
2022/02/22 00:40:10;;;;;;;15.93;2.13;;;4.50;99.90;;;;;;5079163;28;20031;-78
2022/02/22 00:42:38;;;;;;;24.67;2.55;;;4.40;99.90;;;;;;5079184;28;20416;-78
2022/02/22 00:45:07;;;;;;;19.13;3.90;;;4.40;99.90;;;;;;5061215;28;20363;-78
2022/02/22 00:47:34;;;;;;;18.92;2.10;;;4.30;99.90;;;;;;5079388;28;20104;-78
2022/02/22 00:50:03;;;;;;;23.23;3.55;;;4.30;99.90;;;;;;5078840;28;20016;-78
2022/02/22 00:52:30;;;;;;;14.95;1.88;;;4.30;99.90;;;;;;5078966;28;20047;-78
2022/02/22 00:54:58;;;;;;;26.85;3.88;;;4.20;99.90;;;;;;5078091;28;20024;-78
2022/02/22 00:57:25;;;;;;;19.48;3.10;;;4.20;99.90;;;;;;5078291;28;20021;-78
2022/02/22 00:59:53;;;;;;;22.98;2.75;;;4.10;99.90;;;;;;5078130;28;20344;-78
2022/02/22 01:02:20;;;;;;;16.10;1.98;;;4.10;99.90;;;;;;5077775;28;20027;-78
2022/02/22 01:04:47;;;;;;;20.05;4.50;;;4.00;99.90;;;;;;5059956;28;20025;-78
2022/02/22 01:07:18;;;;;;;17.33;2.83;;;4.00;99.90;;;;;;5077813;28;20017;-78
2022/02/22 01:09:49;;;;;;;15.55;2.63;;;4.00;99.90;;;;;;5077833;28;20020;-78
2022/02/22 01:12:17;;;;;;;16.83;2.95;;;3.90;99.90;;;;;;5078129;28;20021;-78
2022/02/22 01:14:46;;;;;;;23.75;2.22;;;3.90;99.90;;;;;;5078363;28;20095;-78
2022/02/22 01:17:13;;;;;;;15.70;2.05;;;3.80;99.90;;;;;;5078390;28;20028;-78
2022/02/22 01:19:41;;;;;;;27.20;3.25;;;3.90;99.90;;;;;;5078604;28;20056;-78
2022/02/22 01:22:09;;;;;;;13.88;2.22;;;3.90;99.90;;;;;;5078303;28;20044;-78
2022/02/22 01:24:37;;;;;;;21.15;3.55;;;4.00;99.90;;;;;;5060538;28;20025;-78
2022/02/22 01:27:05;;;;;;;23.23;3.33;;;4.00;99.90;;;;;;5078540;28;20055;-78
2022/02/22 01:29:33;;;;;;;17.70;3.42;;;4.00;99.90;;;;;;5078358;28;20146;-78
2022/02/22 01:32:00;;;;;;;20.35;2.95;;;3.90;99.90;;;;;;5077731;28;20020;-78
2022/02/22 01:34:28;;;;;;;10.48;2.13;;;3.90;99.90;;;;;;5059410;28;20021;-78
2022/02/22 01:36:56;;;;;;;22.67;3.38;;;4.00;99.90;;;;;;5077697;28;20017;-78
2022/02/22 01:39:24;;;;;;;21.30;2.90;;;3.90;99.90;;;;;;5076996;28;20017;-78
2022/02/22 01:41:51;;;;;;;21.45;3.75;;;4.00;99.90;;;;;;5059453;28;20437;-78
2022/02/22 01:44:23;;;;;;;15.50;2.90;;;4.00;99.90;;;;;;5077282;28;20324;-78
2022/02/22 01:47:01;;;;;;;11.38;1.77;;;4.00;99.90;;;;;;5059242;28;20060;-78
2022/02/22 01:49:28;;;;;;;15.30;2.20;;;4.00;99.90;;;;;;5076370;28;20032;-78
2022/02/22 01:51:56;;;;;;;17.83;2.17;;;4.00;99.90;;;;;;5077486;28;20024;-78
2022/02/22 01:54:26;;;;;;;15.02;3.42;;;4.00;99.90;;;;;;5078049;28;20024;-78
2022/02/22 01:56:54;;;;;;;11.23;1.55;;;4.00;99.90;;;;;;5078285;28;20023;-78
2022/02/22 01:59:22;;;;;;;17.30;1.95;;;3.90;99.90;;;;;;5077912;28;20104;-78
2022/02/22 02:01:49;;;;;;;13.05;2.30;;;3.90;99.90;;;;;;5077824;28;20020;-78
2022/02/22 02:04:17;;;;;;;21.85;3.10;;;3.90;99.90;;;;;;5077588;28;20028;-78
2022/02/22 02:06:45;;;;;;;10.00;2.67;;;3.80;99.90;;;;;;5077900;28;20052;-78
2022/02/22 02:09:13;;;;;;;12.23;2.50;;;3.60;99.90;;;;;;5076861;28;20028;-78
2022/02/22 02:11:55;;;;;;;8.40;1.92;;;3.50;99.90;;;;;;5076794;28;20025;-78
2022/02/22 02:14:24;;;;;;;14.95;1.75;;;3.40;99.90;;;;;;5076852;28;20027;-78
2022/02/22 02:16:53;;;;;;;12.80;2.40;;;3.20;99.90;;;;;;5076888;28;20028;-78
2022/02/22 02:19:21;;;;;;;24.73;3.67;;;3.10;99.90;;;;;;5076798;28;20059;-78
2022/02/22 02:21:50;;;;;;;14.52;1.98;;;3.00;99.90;;;;;;5076484;28;20066;-78
2022/02/22 02:24:20;;;;;;;17.13;2.30;;;3.00;99.90;;;;;;5076728;28;20060;-78
2022/02/22 02:26:48;;;;;;;24.55;4.13;;;2.90;99.90;;;;;;5076540;28;20059;-78
2022/02/22 02:29:18;;;;;;;21.65;2.85;;;2.90;99.90;;;;;;5077564;28;20029;-77
2022/02/22 02:31:47;;;;;;;20.75;2.83;;;2.90;99.90;;;;;;5077520;28;20024;-78
2022/02/22 02:34:20;;;;;;;16.38;3.63;;;2.80;99.90;;;;;;5077247;28;20021;-77
2022/02/22 02:36:48;;;;;;;13.00;2.45;;;2.80;99.90;;;;;;5077291;28;20044;-78
2022/02/22 02:39:15;;;;;;;20.77;3.15;;;2.80;99.90;;;;;;5077746;28;20033;-78
2022/02/22 02:41:44;;;;;;;20.17;4.00;;;2.70;99.90;;;;;;5077402;28;20016;-78
2022/02/22 02:44:14;;;;;;;20.85;3.25;;;2.70;99.90;;;;;;5077045;28;20024;-78
2022/02/22 02:46:43;;;;;;;14.68;3.00;;;2.70;99.90;;;;;;5076306;28;20113;-78
2022/02/22 02:49:11;;;;;;;19.77;3.38;;;2.70;99.90;;;;;;5076138;28;20027;-78
2022/02/22 02:51:40;;;;;;;18.23;2.58;;;2.70;99.90;;;;;;5076344;28;20017;-78
2022/02/22 02:54:09;;;;;;;19.17;2.97;;;2.80;99.90;;;;;;5076181;28;20424;-78
2022/02/22 02:56:37;;;;;;;7.60;2.08;;;2.90;99.90;;;;;;5076448;28;20024;-78
2022/02/22 02:59:07;;;;;;;14.50;2.45;;;3.00;99.90;;;;;;5076061;28;20471;-78
2022/02/22 03:01:36;;;;;;;23.83;4.47;;;3.00;99.90;;;;;;5079239;28;20031;-78
2022/02/22 03:04:04;;;;;;;27.55;2.78;;;3.10;99.90;;;;;;5080277;28;20024;-78
2022/02/22 03:06:31;;;;;;;21.45;4.15;;;3.10;99.90;;;;;;5080995;28;20016;-78
2022/02/22 03:08:59;;;;;;;15.30;2.60;;;3.20;99.90;;;;;;5081084;28;20028;-78
2022/02/22 03:11:26;;;;;;;17.52;3.20;;;3.20;99.90;;;;;;5063486;28;20359;-78
2022/02/22 03:13:54;;;;;;;11.18;2.20;;;3.20;99.90;;;;;;5080777;28;20024;-77
2022/02/22 03:16:22;;;;;;;19.42;2.75;;;3.20;99.90;;;;;;5080798;28;20027;-77
2022/02/22 03:18:50;;;;;;;17.40;4.60;;;3.20;99.90;;;;;;5081032;28;20415;-78
2022/02/22 03:21:17;;;;;;;25.35;4.60;;;3.10;99.90;;;;;;5080547;28;20108;-77
2022/02/22 03:23:44;;;;;;;14.85;1.85;;;3.10;99.90;;;;;;5079517;28;20048;-78
2022/02/22 03:26:12;;;;;;;16.90;3.65;;;3.10;99.90;;;;;;5079599;28;20086;-78
2022/02/22 03:28:39;;;;;;;20.20;2.83;;;3.00;99.90;;;;;;5080084;28;20028;-77
2022/02/22 03:31:06;;;;;;;25.58;4.25;;;3.00;99.90;;;;;;5079803;28;20024;-78
2022/02/22 03:33:34;;;;;;;30.45;4.53;;;3.00;99.90;;;;;;5079510;28;20404;-77
2022/02/22 03:36:03;;;;;;;25.98;2.97;;;3.00;99.90;;;;;;5079581;28;20070;-78
2022/02/22 03:38:30;;;;;;;19.40;2.75;;;3.00;99.90;;;;;;5079421;28;20113;-78
2022/02/22 03:40:58;;;;;;;15.98;2.05;;;3.10;99.90;;;;;;5080546;28;20020;-78
2022/02/22 03:43:25;;;;;;;14.88;2.75;;;3.00;99.90;;;;;;5062461;28;20024;-78
2022/02/22 03:45:52;;;;;;;20.77;3.92;;;3.10;99.90;;;;;;5080929;28;20021;-77
2022/02/22 03:48:20;;;;;;;19.35;3.35;;;3.10;99.90;;;;;;5080092;28;20048;-78
2022/02/22 03:50:48;;;;;;;21.83;2.75;;;3.00;99.90;;;;;;5080161;28;20017;-78
2022/02/22 03:53:16;;;;;;;22.85;2.92;;;3.00;99.90;;;;;;5080525;28;20012;-78
2022/02/22 03:55:44;;;;;;;14.55;4.32;;;3.00;99.90;;;;;;5080612;28;20111;-78
2022/02/22 03:58:12;;;;;;;21.85;3.63;;;3.10;99.90;;;;;;5079042;28;20021;-78
2022/02/22 04:00:39;;;;;;;20.65;2.53;;;3.10;99.90;;;;;;5079332;28;20021;-78
2022/02/22 04:03:11;;;;;;;17.65;3.00;;;3.20;99.90;;;;;;5079241;28;20021;-78
2022/02/22 04:05:39;;;;;;;15.50;3.80;;;3.20;99.90;;;;;;5079144;28;20099;-78
2022/02/22 04:08:06;;;;;;;37.30;5.30;;;3.30;99.90;;;;;;5079103;28;20025;-77
2022/02/22 04:10:34;;;;;;;15.75;4.20;;;3.30;99.90;;;;;;5078785;28;20430;-78
2022/02/22 04:13:02;;;;;;;16.02;2.72;;;3.30;99.90;;;;;;5078178;28;20074;-78
2022/02/22 04:15:29;;;;;;;31.20;5.88;;;3.30;99.90;;;;;;5061238;28;20021;-77
2022/02/22 04:17:57;;;;;;;19.75;3.42;;;3.30;99.90;;;;;;5079621;28;20021;-77
2022/02/22 04:20:24;;;;;;;17.98;3.88;;;3.30;99.90;;;;;;5061790;28;20029;-78
2022/02/22 04:22:52;;;;;;;22.00;4.28;;;3.30;99.90;;;;;;5079486;28;20348;-78
2022/02/22 04:25:20;;;;;;;27.92;4.65;;;3.20;99.90;;;;;;5079448;28;20150;-77
2022/02/22 04:27:47;;;;;;;22.30;2.83;;;3.20;99.90;;;;;;5079524;28;20476;-77
2022/02/22 04:30:15;;;;;;;20.30;4.18;;;3.20;99.90;;;;;;5079209;28;20036;-78
2022/02/22 04:32:43;;;;;;;32.10;3.97;;;3.20;99.90;;;;;;5079826;28;20032;-78
2022/02/22 04:35:11;;;;;;;17.23;3.47;;;3.30;99.90;;;;;;5078581;28;20025;-78
2022/02/22 04:37:38;;;;;;;20.55;3.78;;;3.20;99.90;;;;;;5078544;28;20074;-78
2022/02/22 04:40:07;;;;;;;20.67;3.58;;;3.20;99.90;;;;;;5078274;28;20020;-78
2022/02/22 04:42:35;;;;;;;29.75;3.60;;;3.20;99.90;;;;;;5060508;28;20024;-78
2022/02/22 04:45:03;;;;;;;25.85;2.78;;;3.10;99.90;;;;;;5078438;28;20463;-78
2022/02/22 04:47:30;;;;;;;14.82;2.22;;;3.10;99.90;;;;;;5060481;28;20035;-78
2022/02/22 04:49:57;;;;;;;27.02;3.95;;;3.10;99.90;;;;;;5078256;28;20024;-78
2022/02/22 04:52:26;;;;;;;21.15;3.45;;;3.10;99.90;;;;;;5078120;28;20412;-78
2022/02/22 04:54:54;;;;;;;15.82;4.25;;;3.00;99.90;;;;;;5079182;28;20074;-77
2022/02/22 04:57:21;;;;;;;22.40;4.95;;;3.10;99.90;;;;;;5079623;28;20021;-78
2022/02/22 04:59:48;;;;;;;29.35;5.18;;;3.10;99.90;;;;;;5078844;28;20104;-77
2022/02/22 05:02:15;;;;;;;19.95;4.13;;;3.10;99.90;;;;;;5079095;28;20024;-77
2022/02/22 05:04:43;;;;;;;31.52;3.67;;;3.10;99.90;;;;;;5079029;28;20021;-77
2022/02/22 05:07:11;;;;;;;22.45;4.53;;;3.10;99.90;;;;;;5078861;28;20028;-78
2022/02/22 05:09:38;;;;;;;24.92;4.32;;;3.10;99.90;;;;;;5078461;28;20104;-77
2022/02/22 05:12:06;;;;;;;16.38;2.92;;;3.20;99.90;;;;;;5077653;28;20032;-78
2022/02/22 05:14:33;;;;;;;17.55;2.83;;;3.20;99.90;;;;;;5077488;28;20360;-77
2022/02/22 05:17:01;;;;;;;28.67;3.50;;;3.20;99.90;;;;;;5077909;28;20106;-78
2022/02/22 05:19:28;;;;;;;24.65;5.05;;;3.10;99.90;;;;;;5077736;28;20024;-78
2022/02/22 05:21:56;;;;;;;35.10;4.45;;;3.10;99.90;;;;;;5059578;28;20028;-77
2022/02/22 05:24:23;;;;;;;14.35;2.38;;;3.10;99.90;;;;;;5077556;28;20025;-77
2022/02/22 05:26:51;;;;;;;32.92;4.28;;;3.00;99.90;;;;;;5077318;28;20032;-77
2022/02/22 05:29:18;;;;;;;25.80;3.22;;;3.10;99.90;;;;;;5077193;28;20031;-77
2022/02/22 05:31:45;;;;;;;28.73;3.42;;;3.10;99.90;;;;;;5078579;28;20103;-77
2022/02/22 05:34:13;;;;;;;20.13;3.80;;;3.10;99.90;;;;;;5078357;28;20439;-77
2022/02/22 05:36:41;;;;;;;31.77;4.30;;;3.20;99.90;;;;;;5060379;28;20031;-77
2022/02/22 05:39:08;;;;;;;22.83;2.72;;;3.10;99.90;;;;;;5060269;28;20033;-77
2022/02/22 05:41:35;;;;;;;28.02;3.42;;;3.10;99.90;;;;;;5078137;28;20317;-77
2022/02/22 05:44:03;;;;;;;16.13;2.28;;;3.10;99.90;;;;;;5060203;28;20020;-77
2022/02/22 05:46:31;;;;;;;22.73;2.75;;;3.10;99.90;;;;;;5077984;28;20031;-77
2022/02/22 05:48:58;;;;;;;21.10;3.60;;;3.10;99.90;;;;;;5076975;28;20056;-77
2022/02/22 05:51:25;;;;;;;21.50;2.50;;;3.10;99.90;;;;;;5059343;28;20321;-78
2022/02/22 05:53:53;;;;;;;28.25;3.72;;;3.10;99.90;;;;;;5076890;28;20035;-77
2022/02/22 05:56:20;;;;;;;21.60;4.65;;;3.10;99.90;;;;;;5059101;28;20420;-78
2022/02/22 05:58:48;;;;;;;16.40;2.70;;;3.10;99.90;;;;;;5076840;28;20024;-77
2022/02/22 06:01:16;;;;;;;23.60;2.63;;;3.10;99.90;;;;;;5076929;28;20020;-77
2022/02/22 06:03:44;;;;;;;23.90;2.70;;;3.10;99.90;;;;;;5075633;28;20428;-77
2022/02/22 06:06:11;;;;;;;26.23;3.67;;;3.10;99.90;;;;;;5076644;28;20098;-77
2022/02/22 06:08:38;;;;;;;17.90;3.35;;;3.10;99.90;;;;;;5077270;28;20021;-77
2022/02/22 06:11:06;;;;;;;17.92;3.05;;;3.10;99.90;;;;;;5077960;28;20040;-78
2022/02/22 06:13:34;;;;;;;30.85;3.90;;;3.00;99.90;;;;;;5059672;28;20030;-78
2022/02/22 06:16:02;;;;;;;21.33;3.63;;;3.00;99.90;;;;;;5077786;28;20032;-78
2022/02/22 06:18:29;;;;;;;17.80;3.00;;;3.10;99.90;;;;;;5077985;28;20040;-78
2022/02/22 06:20:56;;;;;;;23.55;3.47;;;3.10;99.90;;;;;;5077637;28;20404;-78
2022/02/22 06:23:24;;;;;;;14.00;2.85;;;3.10;99.90;;;;;;5059508;28;20044;-78
2022/02/22 06:25:51;;;;;;;23.38;4.60;;;3.10;99.90;;;;;;5077059;28;20115;-78
2022/02/22 06:28:19;;;;;;;18.67;2.40;;;3.10;99.90;;;;;;5077067;28;20070;-78
2022/02/22 06:30:47;;;;;;;23.88;2.60;;;3.10;99.90;;;;;;5076583;28;20048;-78
2022/02/22 06:33:14;;;;;;;23.77;2.72;;;3.20;99.90;;;;;;5076348;28;20450;-77
2022/02/22 06:35:42;;;;;;;16.70;4.68;;;3.20;99.90;;;;;;5079271;28;20048;-91
2022/02/22 06:38:09;;;;;;;19.02;3.20;;;3.20;99.90;;;;;;5065649;28;20059;-89
2022/02/22 06:40:38;;;;;;;23.52;4.05;;;3.10;99.90;;;;;;5065644;28;20021;-90
2022/02/22 06:43:05;;;;;;;23.80;2.55;;;3.10;99.90;;;;;;5065661;28;20024;-92
2022/02/22 06:45:32;;;;;;;23.63;3.95;;;3.10;99.90;;;;;;5066111;28;20048;-83
2022/02/22 06:47:59;;;;;;;18.58;3.95;;;3.10;99.90;;;;;;5084583;28;20025;-86
2022/02/22 06:50:26;;;;;;;29.02;4.85;;;3.10;99.90;;;;;;5084228;28;20293;-84
2022/02/22 06:52:54;;;;;;;45.08;5.03;;;3.10;99.90;;;;;;5066217;28;20031;-87
2022/02/22 06:55:22;;;;;;;35.63;3.72;;;3.10;99.90;;;;;;5066073;28;20028;-83
2022/02/22 06:58:06;;;;;;;26.30;3.17;;;3.10;99.90;;;;;;5066076;28;20028;-80
2022/02/22 07:00:35;;;;;;;19.05;5.80;;;3.20;99.90;;;;;;5083743;28;20430;-77
2022/02/22 07:03:04;;;;;;;21.65;5.10;;;3.20;99.90;;;;;;5083016;28;20048;-76
2022/02/22 07:05:35;;;;;;;29.40;3.97;;;3.30;99.90;;;;;;5083572;28;20028;-77
2022/02/22 07:08:04;;;;;;;27.92;5.15;;;3.40;99.90;;;;;;5082773;28;20434;-77
2022/02/22 07:10:32;;;;;;;20.13;2.30;;;3.40;99.90;;;;;;5064959;28;20438;-76
2022/02/22 07:13:00;;;;;;;29.20;4.20;;;3.50;99.90;;;;;;5065033;28;20361;-77
2022/02/22 07:15:29;;;;;;;18.35;2.70;;;3.50;99.90;;;;;;5083277;28;20021;-76
2022/02/22 07:17:59;;;;;;;22.67;2.80;;;3.60;99.90;;;;;;5083307;28;20057;-76
2022/02/22 07:20:28;;;;;;;23.80;3.65;;;3.60;99.90;;;;;;5083067;28;20078;-77
2022/02/22 07:22:55;;;;;;;36.25;13.38;;;3.70;99.90;;;;;;5083482;28;20059;-87
2022/02/22 07:25:25;;;;;;;21.80;3.72;;;3.70;99.90;;;;;;5066189;28;20481;-78
2022/02/22 07:27:59;;;;;;;14.63;2.53;;;3.80;99.90;;;;;;5083491;28;20060;-80
2022/02/22 07:30:28;;;;;;;25.10;3.60;;;3.90;99.90;;;;;;5084005;28;20308;-81
2022/02/22 07:32:57;;;;;;;24.80;3.97;;;3.90;99.90;;;;;;5083457;28;20041;-76
2022/02/22 07:35:24;;;;;;;25.83;3.85;;;3.90;99.90;;;;;;5084177;28;20048;-79
2022/02/22 07:37:52;;;;;;;15.32;2.90;;;3.90;99.90;;;;;;5082893;28;20016;-75
2022/02/22 07:40:21;;;;;;;23.70;2.95;;;3.90;99.90;;;;;;5082490;28;20428;-75
2022/02/22 07:42:49;;;;;;;13.68;2.00;;;4.00;99.90;;;;;;5064856;28;20302;-79
2022/02/22 07:45:21;;;;;;;25.63;3.00;;;4.00;99.90;;;;;;5064623;28;20107;-79
2022/02/22 07:47:48;;;;;;;22.63;4.13;;;4.00;99.90;;;;;;5061136;28;20447;-77
2022/02/22 07:50:16;;;;;;;26.23;4.60;;;4.10;99.90;;;;;;5079765;28;20316;-77
2022/02/22 07:52:43;;;;;;;13.70;2.60;;;4.10;99.90;;;;;;5061469;28;20020;-76
2022/02/22 07:55:10;;;;;;;26.67;2.85;;;4.10;99.90;;;;;;5079129;28;20012;-77
2022/02/22 07:57:37;;;;;;;15.10;2.75;;;4.10;99.90;;;;;;5080262;28;20366;-78
2022/02/22 08:00:08;;;;;;;22.20;3.13;;;4.20;99.90;;;;;;5079980;28;20017;-76
2022/02/22 08:02:36;;;;;;;39.58;3.97;;;4.10;99.90;;;;;;5079992;28;20316;-78
2022/02/22 08:05:04;;;;;;;28.30;3.85;;;4.20;99.90;;;;;;5062064;28;20077;-78
2022/02/22 08:07:36;;;;;;;24.42;2.95;;;4.20;99.90;;;;;;5079889;28;20481;-69
2022/02/22 08:10:06;;;;;;;17.90;3.55;;;4.20;99.90;;;;;;5079639;28;20032;-69
2022/02/22 08:12:34;;;;;;;13.43;1.75;;;4.30;99.90;;;;;;5079756;28;20020;-69
2022/02/22 08:15:01;;;;;;;20.00;2.60;;;4.30;99.90;;;;;;5078767;28;20016;-69
2022/02/22 08:17:29;;;;;;;34.28;5.00;;;4.40;99.90;;;;;;5078885;28;20094;-69
2022/02/22 08:19:56;;;;;;;16.60;2.67;;;4.40;99.90;;;;;;5079188;28;20423;-69
2022/02/22 08:22:23;;;;;;;11.65;3.58;;;4.40;99.90;;;;;;5057357;28;20051;-69
2022/02/22 08:24:51;;;;;;;21.67;3.17;;;4.40;99.90;;;;;;5058571;28;20036;-68
2022/02/22 08:27:19;;;;;;;12.80;2.55;;;4.50;99.90;;;;;;5058988;28;20039;-70
2022/02/22 08:29:47;;;;;;;20.30;3.50;;;4.50;99.90;;;;;;5058403;28;20017;-69
2022/02/22 08:32:14;;;;;;;18.33;2.60;;;4.60;99.90;;;;;;5058460;28;20027;-71
2022/02/22 08:34:42;;;;;;;18.48;2.83;;;4.70;99.90;;;;;;5059914;28;20404;-69
2022/02/22 08:37:09;;;;;;;16.00;2.75;;;4.80;99.90;;;;;;5059917;28;20401;-69
2022/02/22 08:39:36;;;;;;;19.83;2.30;;;4.90;99.90;;;;;;5059677;28;20021;-69
2022/02/22 08:42:06;;;;;;;21.60;3.15;;;4.90;99.90;;;;;;5059673;28;20025;-69
2022/02/22 08:44:35;;;;;;;17.35;3.35;;;5.00;99.90;;;;;;5059066;28;20443;-69
2022/02/22 08:47:03;;;;;;;24.08;4.13;;;5.00;99.90;;;;;;5059267;28;20033;-69
2022/02/22 08:49:30;;;;;;;22.13;3.92;;;5.00;99.90;;;;;;5058746;28;20021;-69
2022/02/22 08:51:58;;;;;;;25.98;4.88;;;5.00;99.90;;;;;;5058162;28;20039;-69
2022/02/22 08:54:26;;;;;;;13.02;3.42;;;5.10;99.90;;;;;;5057675;28;20282;-69
2022/02/22 08:56:54;;;;;;;32.05;3.55;;;5.20;99.90;;;;;;5057144;28;20021;-69
2022/02/22 08:59:22;;;;;;;17.98;3.25;;;5.30;99.90;;;;;;5058059;28;20405;-69
2022/02/22 09:01:49;;;;;;;25.85;3.75;;;5.40;99.90;;;;;;5057836;28;20114;-70
2022/02/22 09:04:17;;;;;;;21.13;2.95;;;5.50;99.90;;;;;;5058343;28;20076;-69
2022/02/22 09:06:44;;;;;;;17.90;2.95;;;5.60;99.90;;;;;;5058144;28;20024;-70
2022/02/22 09:09:11;;;;;;;25.70;4.35;;;5.70;99.90;;;;;;5057043;28;20116;-68
2022/02/22 09:11:39;;;;;;;26.83;3.53;;;5.70;99.90;;;;;;5058605;28;20017;-69
2022/02/22 09:14:06;;;;;;;10.70;2.50;;;5.70;99.90;;;;;;5058733;28;20060;-69
2022/02/22 09:16:33;;;;;;;22.38;3.60;;;5.70;99.90;;;;;;5058007;28;20455;-69
2022/02/22 09:19:00;;;;;;;21.02;4.25;;;5.70;99.90;;;;;;5058935;28;20143;-70
2022/02/22 09:21:28;;;;;;;18.50;3.08;;;5.70;99.90;;;;;;5058456;28;20479;-69
2022/02/22 09:23:56;;;;;;;12.52;2.58;;;5.70;99.90;;;;;;5075905;28;20056;-70
2022/02/22 09:26:23;;;;;;;17.73;2.72;;;5.80;99.90;;;;;;5077194;28;20503;-70
2022/02/22 09:28:52;;;;;;;24.63;3.13;;;5.80;99.90;;;;;;5077196;28;20024;-69
2022/02/22 09:31:19;;;;;;;20.75;3.95;;;5.80;99.90;;;;;;5077395;28;20095;-70
2022/02/22 09:33:47;;;;;;;14.95;3.53;;;5.80;99.90;;;;;;5077755;28;20456;-70
2022/02/22 09:36:14;;;;;;;14.18;3.05;;;5.80;99.90;;;;;;5077086;28;20416;-69
2022/02/22 09:38:42;;;;;;;21.55;3.33;;;5.70;99.90;;;;;;5077653;28;20048;-70
2022/02/22 09:41:10;;;;;;;18.10;4.30;;;5.70;99.90;;;;;;5077355;28;20048;-70
2022/02/22 09:46:44;;;;;;;17.92;3.60;;;5.80;99.90;;;;;;5077610;28;20039;-69
2022/02/22 09:49:13;;;;;;;15.75;2.88;;;5.90;99.90;;;;;;5078287;28;20020;-70
2022/02/22 09:51:40;;;;;;;17.13;3.03;;;6.00;99.90;;;;;;5078495;28;20162;-69
2022/02/22 09:54:07;;;;;;;14.85;3.60;;;6.00;99.90;;;;;;5077736;28;20320;-72
2022/02/22 09:56:43;;;;;;;18.55;3.50;;;6.10;99.90;;;;;;5078080;28;20020;-71
2022/02/22 09:59:11;;;;;;;19.80;3.80;;;6.10;99.90;;;;;;5077212;28;20035;-71
2022/02/22 10:01:44;;;;;;;23.83;4.30;;;6.20;99.90;;;;;;5059221;28;20032;-71
2022/02/22 10:04:12;;;;;;;18.83;4.35;;;6.20;99.90;;;;;;5076619;28;20032;-70
2022/02/22 10:06:40;;;;;;;18.95;3.20;;;6.10;99.90;;;;;;5076714;28;20070;-71
2022/02/22 10:09:13;;;;;;;18.17;4.38;;;6.00;99.90;;;;;;5077102;28;20024;-71
2022/02/22 10:11:47;;;;;;;15.65;4.15;;;5.90;99.90;;;;;;5076025;28;20107;-70
2022/02/22 10:14:30;;;;;;;22.40;3.80;;;5.90;99.90;;;;;;5076836;28;20312;-70
2022/02/22 10:16:58;;;;;;;11.30;3.05;;;5.90;99.90;;;;;;5076635;28;20028;-70
2022/02/22 10:19:28;;;;;;;19.88;2.88;;;6.00;99.90;;;;;;5077297;28;20099;-70
2022/02/22 10:21:56;;;;;;;19.55;3.60;;;6.00;99.90;;;;;;5077505;28;20025;-70
2022/02/22 10:24:29;;;;;;;15.98;3.45;;;6.10;99.90;;;;;;5077450;28;20020;-69
2022/02/22 10:27:05;;;;;;;8.95;2.35;;;6.10;99.90;;;;;;5077354;28;20024;-70
2022/02/22 10:29:34;;;;;;;17.80;3.47;;;6.20;99.90;;;;;;5077535;28;20056;-69
2022/02/22 10:32:16;;;;;;;14.43;3.28;;;6.30;99.90;;;;;;5060180;28;20028;-69
2022/02/22 10:34:44;;;;;;;19.35;4.47;;;6.30;99.90;;;;;;5058889;28;20020;-69
2022/02/22 10:37:11;;;;;;;20.00;4.22;;;6.40;99.90;;;;;;5041928;28;20024;-69
2022/02/22 10:39:38;;;;;;;16.02;2.85;;;6.50;99.90;;;;;;5058696;28;20082;-70
2022/02/22 10:42:06;;;;;;;14.98;3.47;;;6.60;99.90;;;;;;5076247;28;20024;-69
2022/02/22 10:44:41;;;;;;;18.05;3.55;;;6.70;99.90;;;;;;5076231;28;20369;-69
2022/02/22 10:47:20;;;;;;;21.65;5.15;;;6.70;99.90;;;;;;5076301;28;20029;-70
2022/02/22 10:49:51;;;;;;;15.50;2.65;;;6.70;99.90;;;;;;5076061;28;20033;-70
2022/02/22 10:52:30;;;;;;;8.32;2.75;;;6.80;99.90;;;;;;5076561;28;20031;-69
2022/02/22 10:55:00;;;;;;;22.85;2.70;;;6.80;99.90;;;;;;5077035;28;20017;-69
2022/02/22 10:57:27;;;;;;;10.10;2.00;;;6.90;99.90;;;;;;5077221;28;20017;-69
2022/02/22 10:59:54;;;;;;;15.30;3.15;;;7.00;99.90;;;;;;5076924;28;20332;-69
2022/02/22 11:02:22;;;;;;;12.80;2.95;;;7.00;99.90;;;;;;5076982;28;20037;-69
2022/02/22 11:04:50;;;;;;;15.45;2.40;;;7.00;99.90;;;;;;5077507;28;20021;-68
2022/02/22 11:07:18;;;;;;;12.50;3.42;;;7.00;99.90;;;;;;5077623;28;20029;-68
2022/02/22 11:09:47;;;;;;;15.60;2.88;;;7.10;99.90;;;;;;5076897;28;20427;-69
2022/02/22 11:12:33;;;;;;;15.88;2.13;;;7.20;99.90;;;;;;5075855;28;20416;-69
2022/02/22 11:15:10;;;;;;;18.77;3.55;;;7.30;99.90;;;;;;5076588;28;20025;-70
2022/02/22 11:17:51;;;;;;;14.57;2.90;;;7.40;99.90;;;;;;5076236;28;20023;-70
2022/02/22 11:20:34;;;;;;;9.88;2.72;;;7.40;99.90;;;;;;5075889;28;20416;-69
2022/02/22 11:23:05;;;;;;;18.17;2.97;;;7.50;99.90;;;;;;5078917;28;20447;-69
2022/02/22 11:25:34;;;;;;;20.88;2.78;;;7.50;99.90;;;;;;5080260;28;20029;-70
2022/02/22 11:28:08;;;;;;;18.73;2.83;;;7.50;99.90;;;;;;5061995;28;20426;-73
2022/02/22 11:30:36;;;;;;;13.95;3.72;;;7.50;99.90;;;;;;5081115;28;20020;-70
2022/02/22 11:33:08;;;;;;;9.48;3.33;;;7.60;99.90;;;;;;5080494;28;20065;-70
2022/02/22 11:35:56;;;;;;;31.02;3.25;;;7.60;99.90;;;;;;5080372;28;20031;-70
2022/02/22 11:38:27;;;;;;;16.35;3.15;;;7.60;99.90;;;;;;5080303;28;20364;-71
2022/02/22 11:40:55;;;;;;;17.48;2.90;;;7.70;99.90;;;;;;5080502;28;20056;-71
2022/02/22 11:43:36;;;;;;;17.35;3.67;;;7.80;99.90;;;;;;5080801;28;20025;-70
2022/02/22 11:46:09;;;;;;;18.65;3.58;;;7.80;99.90;;;;;;5079730;28;20063;-71
2022/02/22 11:48:38;;;;;;;13.57;3.55;;;7.90;99.90;;;;;;5079272;28;20020;-71
2022/02/22 11:51:14;;;;;;;18.48;3.65;;;7.80;99.90;;;;;;5061474;28;20058;-71
2022/02/22 11:53:54;;;;;;;16.63;3.50;;;7.80;99.90;;;;;;5079362;28;20020;-69
2022/02/22 11:56:25;;;;;;;15.02;3.50;;;7.90;99.90;;;;;;5079211;28;20109;-70
2022/02/22 11:58:53;;;;;;;19.65;3.90;;;7.90;99.90;;;;;;5079075;28;20147;-70
2022/02/22 12:01:21;;;;;;;15.00;2.72;;;7.90;99.90;;;;;;5061907;28;20020;-69
2022/02/22 12:03:50;;;;;;;21.85;3.35;;;8.00;99.90;;;;;;5061840;28;20439;-69
2022/02/22 12:06:21;;;;;;;19.05;4.07;;;8.10;99.90;;;;;;5080001;28;20029;-70
2022/02/22 12:08:53;;;;;;;12.43;2.78;;;8.10;99.90;;;;;;5079804;28;20020;-70
2022/02/22 12:11:25;;;;;;;10.27;2.42;;;8.00;99.90;;;;;;5080507;28;20308;-70
2022/02/22 12:13:58;;;;;;;13.55;2.20;;;7.90;99.90;;;;;;5079745;28;20019;-70
2022/02/22 12:16:31;;;;;;;14.80;2.65;;;7.90;99.90;;;;;;5080367;28;20359;-73
2022/02/22 12:19:05;;;;;;;11.88;3.10;;;7.80;99.90;;;;;;5079667;28;20020;-72
2022/02/22 12:21:34;;;;;;;9.38;2.05;;;7.80;99.90;;;;;;5078689;28;20031;-71
2022/02/22 12:24:02;;;;;;;10.68;1.42;;;7.80;99.90;;;;;;5078390;28;20139;-71
2022/02/22 12:26:30;;;;;;;11.18;2.50;;;7.80;99.90;;;;;;5061019;28;20487;-71
2022/02/22 12:29:07;;;;;;;11.48;1.70;;;7.80;99.90;;;;;;5079035;28;20025;-71
2022/02/22 12:31:37;;;;;;;12.88;2.00;;;7.90;99.90;;;;;;5078713;28;20298;-71
2022/02/22 12:34:06;;;;;;;10.70;2.10;;;7.90;99.90;;;;;;5077792;28;20058;-71
2022/02/22 12:36:35;;;;;;;12.38;2.10;;;8.00;99.90;;;;;;5078522;28;20442;-70
2022/02/22 12:39:09;;;;;;;7.18;1.58;;;8.00;99.90;;;;;;5079219;28;20063;-70
2022/02/22 12:41:45;;;;;;;13.15;3.08;;;8.10;99.90;;;;;;5061406;28;20048;-70
2022/02/22 12:47:19;;;;;;;17.75;2.58;;;8.00;99.90;;;;;;5065164;28;20082;-69
2022/02/22 12:49:48;;;;;;;8.77;2.22;;;8.00;99.90;;;;;;5062053;28;20099;-69
2022/02/22 12:52:22;;;;;;;7.90;1.50;;;8.00;99.90;;;;;;5079007;28;20053;-69
2022/02/22 12:54:50;;;;;;;9.10;1.20;;;8.00;99.90;;;;;;5079275;28;20305;-69
2022/02/22 12:57:19;;;;;;;8.13;2.15;;;8.00;99.90;;;;;;5078831;28;20029;-70
2022/02/22 12:59:47;;;;;;;9.07;2.30;;;8.00;99.90;;;;;;5077885;28;20028;-70
2022/02/22 13:02:18;;;;;;;7.70;1.27;;;7.90;99.90;;;;;;5078106;28;20366;-70